TimeCST,TemperatureF,Dew PointF,Humidity,Sea Level PressureIn,VisibilityMPH,Wind Direction,Wind SpeedMPH,Gust SpeedMPH,PrecipitationIn,Events,Conditions,WindDirDegrees,DateUTC
12:15 AM,46.4,33.8,62,29.92,10.0,South,25.3,31.1,N/A,,Mostly Cloudy,170,2013-01-27 06:15:00
12:35 AM,46.4,35.6,66,29.92,10.0,South,23.0,28.8,N/A,,Mostly Cloudy,180,2013-01-27 06:35:00
12:55 AM,46.4,35.6,66,29.91,10.0,South,19.6,25.3,N/A,,Mostly Cloudy,180,2013-01-27 06:55:00
1:15 AM,44.6,35.6,71,29.91,10.0,South,20.7,25.3,N/A,,Scattered Clouds,180,2013-01-27 07:15:00
1:35 AM,44.6,35.6,71,29.91,10.0,South,19.6,-,N/A,,Clear,180,2013-01-27 07:35:00
1:55 AM,42.8,33.8,70,29.90,10.0,South,18.4,-,N/A,,Clear,180,2013-01-27 07:55:00
2:15 AM,42.8,35.6,76,29.90,10.0,South,17.3,-,N/A,,Scattered Clouds,180,2013-01-27 08:15:00
2:35 AM,42.8,35.6,76,29.89,10.0,South,17.3,-,N/A,,Scattered Clouds,180,2013-01-27 08:35:00
2:55 AM,42.8,35.6,76,29.89,10.0,South,18.4,23.0,N/A,,Scattered Clouds,180,2013-01-27 08:55:00
3:15 AM,42.8,35.6,76,29.89,10.0,South,18.4,23.0,N/A,,Scattered Clouds,180,2013-01-27 09:15:00
3:35 AM,42.8,35.6,76,29.89,10.0,South,12.7,-,N/A,,Scattered Clouds,180,2013-01-27 09:35:00
3:55 AM,42.8,35.6,76,29.88,10.0,South,16.1,-,N/A,,Scattered Clouds,170,2013-01-27 09:55:00
4:15 AM,42.8,35.6,76,29.87,10.0,South,16.1,-,N/A,,Clear,180,2013-01-27 10:15:00
4:35 AM,42.8,35.6,76,29.87,10.0,South,15.0,-,N/A,,Scattered Clouds,180,2013-01-27 10:35:00
4:55 AM,42.8,37.4,81,29.87,10.0,South,15.0,-,N/A,,Scattered Clouds,180,2013-01-27 10:55:00
5:15 AM,42.8,37.4,81,29.86,10.0,South,15.0,-,N/A,,Scattered Clouds,180,2013-01-27 11:15:00
5:35 AM,41.0,37.4,87,29.86,10.0,South,13.8,-,N/A,,Scattered Clouds,180,2013-01-27 11:35:00
6:15 AM,41.0,37.4,87,29.86,10.0,South,16.1,-,N/A,,Clear,180,2013-01-27 12:15:00
6:35 AM,42.8,39.2,87,29.86,7.0,South,17.3,-,N/A,,Scattered Clouds,190,2013-01-27 12:35:00
6:55 AM,42.8,41.0,93,29.86,7.0,South,16.1,-,N/A,,Mostly Cloudy,190,2013-01-27 12:55:00
7:15 AM,42.8,41.0,93,29.87,7.0,South,12.7,-,N/A,,Mostly Cloudy,190,2013-01-27 13:15:00
7:35 AM,42.8,42.8,100,29.87,5.0,SSW,12.7,-,N/A,,Mostly Cloudy,200,2013-01-27 13:35:00
7:55 AM,42.8,42.8,100,29.87,4.0,South,13.8,-,N/A,,Mostly Cloudy,190,2013-01-27 13:55:00
8:15 AM,44.6,42.8,93,29.87,5.0,SSW,15.0,-,N/A,,Mostly Cloudy,200,2013-01-27 14:15:00
8:35 AM,46.4,42.8,87,29.87,5.0,SSW,15.0,-,N/A,,Scattered Clouds,200,2013-01-27 14:35:00
8:55 AM,46.4,44.6,93,29.87,5.0,SSW,13.8,-,N/A,,Scattered Clouds,200,2013-01-27 14:55:00
9:15 AM,51.8,44.6,76,29.87,7.0,SSW,11.5,-,N/A,,Clear,200,2013-01-27 15:15:00
9:35 AM,55.4,44.6,67,29.87,10.0,SW,21.9,27.6,N/A,,Scattered Clouds,220,2013-01-27 15:35:00
9:55 AM,55.4,42.8,63,29.87,10.0,SW,21.9,25.3,N/A,,Mostly Cloudy,220,2013-01-27 15:55:00
10:35 AM,60.8,41.0,48,29.87,10.0,WSW,29.9,34.5,N/A,,Scattered Clouds,240,2013-01-27 16:35:00
10:55 AM,62.6,41.0,45,29.87,10.0,SW,27.6,32.2,N/A,,Clear,230,2013-01-27 16:55:00
11:35 AM,64.4,35.6,34,29.86,10.0,WSW,25.3,36.8,N/A,,Clear,240,2013-01-27 17:35:00
12:35 PM,68.0,33.8,28,29.83,10.0,SW,26.5,35.7,N/A,,Clear,230,2013-01-27 18:35:00
1:15 PM,69.8,33.8,27,29.80,10.0,SW,27.6,39.1,N/A,,Clear,230,2013-01-27 19:15:00
1:35 PM,69.8,33.8,27,29.79,10.0,WSW,26.5,33.4,N/A,,Clear,240,2013-01-27 19:35:00
1:55 PM,69.8,33.8,27,29.79,10.0,WSW,28.8,35.7,N/A,,Clear,240,2013-01-27 19:55:00
2:15 PM,69.8,33.8,27,29.78,10.0,WSW,26.5,36.8,N/A,,Clear,240,2013-01-27 20:15:00
2:55 PM,71.6,32.0,23,29.78,10.0,WSW,26.5,33.4,N/A,,Clear,250,2013-01-27 20:55:00
3:35 PM,71.6,32.0,23,29.78,10.0,SW,25.3,35.7,N/A,,Clear,230,2013-01-27 21:35:00
3:55 PM,71.6,32.0,23,29.78,10.0,WSW,25.3,32.2,N/A,,Clear,240,2013-01-27 21:55:00
4:15 PM,71.6,32.0,23,29.78,10.0,WSW,25.3,33.4,N/A,,Clear,240,2013-01-27 22:15:00
4:35 PM,69.8,32.0,25,29.78,10.0,WSW,25.3,32.2,N/A,,Clear,240,2013-01-27 22:35:00
4:55 PM,69.8,30.2,23,29.78,10.0,WSW,21.9,28.8,N/A,,Clear,240,2013-01-27 22:55:00
5:15 PM,68.0,32.0,26,29.78,10.0,WSW,19.6,26.5,N/A,,Clear,240,2013-01-27 23:15:00
5:35 PM,68.0,32.0,26,29.79,10.0,SW,19.6,26.5,N/A,,Clear,230,2013-01-27 23:35:00
5:55 PM,64.4,32.0,30,29.80,10.0,SW,13.8,23.0,N/A,,Clear,230,2013-01-27 23:55:00
6:15 PM,60.8,32.0,34,29.80,10.0,SW,13.8,-,N/A,,Clear,230,2013-01-28 00:15:00
6:35 PM,59.0,32.0,36,29.80,10.0,SW,13.8,-,N/A,,Clear,220,2013-01-28 00:35:00
6:55 PM,59.0,32.0,36,29.81,10.0,SW,15.0,-,N/A,,Clear,220,2013-01-28 00:55:00
7:15 PM,57.2,30.2,36,29.82,10.0,SW,15.0,-,N/A,,Clear,220,2013-01-28 01:15:00
7:35 PM,57.2,32.0,38,29.83,10.0,SW,15.0,-,N/A,,Clear,220,2013-01-28 01:35:00
7:55 PM,55.4,32.0,41,29.84,10.0,SW,12.7,-,N/A,,Clear,230,2013-01-28 01:55:00
8:15 PM,53.6,32.0,44,29.84,10.0,SW,11.5,-,N/A,,Clear,220,2013-01-28 02:15:00
8:35 PM,53.6,32.0,44,29.85,10.0,SW,13.8,-,N/A,,Clear,230,2013-01-28 02:35:00
8:55 PM,51.8,32.0,47,29.85,10.0,SW,11.5,-,N/A,,Clear,220,2013-01-28 02:55:00
9:15 PM,50.0,32.0,50,29.85,10.0,SW,12.7,-,N/A,,Clear,220,2013-01-28 03:15:00
9:35 PM,51.8,32.0,47,29.85,10.0,SW,12.7,-,N/A,,Clear,220,2013-01-28 03:35:00
10:15 PM,50.0,32.0,50,29.85,10.0,SW,15.0,-,N/A,,Clear,230,2013-01-28 04:15:00
10:35 PM,51.8,32.0,47,29.85,10.0,SW,15.0,-,N/A,,Clear,220,2013-01-28 04:35:00
10:55 PM,51.8,32.0,47,29.85,10.0,SW,15.0,-,N/A,,Clear,220,2013-01-28 04:55:00
11:15 PM,53.6,32.0,44,29.86,10.0,SW,15.0,-,N/A,,Clear,230,2013-01-28 05:15:00
11:35 PM,51.8,32.0,47,29.86,10.0,WSW,12.7,-,N/A,,Clear,240,2013-01-28 05:35:00